• Join FlightAware (Why Join?)
  • Login
  • US Flag 
Rudolph Flight #1: Arrived! 
10:31PM EST


 

Airport Tracker/Info


-or-


 

Live Flight TrackerFlight Track Log ✈ N498QS ✈ 01-Jul-2013 ✈ KTPA - MMUN / CUN

Flight Track Log - Related Links

Times and Time Zones

All times are in EDT time to prevent confusion due to time zone crossing. See the N498QS flight status page for this flight to view local times or setup timezone preferences in your user account.

Time Position Orientation Groundspeed Altitude Reporting Facility
EDT Latitude Longitude Course Direction KTS MPH feet Rate Location/Type
02:05PM 27.9667 -82.5333 190° South 196 226 1,100  Level Tampa TRACON
02:06PM 27.8833 -82.5500 190° South 226 260 5,100 2,760 Climbing Tampa TRACON
02:09PM 27.6983 -82.5342 176° South 278 320 12,200 2,760 Climbing Miami Center
02:10PM 27.6025 -82.5269 176° South 303 349 15,400 2,580 Climbing Miami Center
02:11PM 27.5167 -82.5392 187° South 303 349 17,400 1,980 Climbing Miami Center
02:12PM 27.4200 -82.5553 188° South 329 379 19,400 1,560 Climbing Miami Center
02:13PM 27.3192 -82.5692 187° South 363 418 20,600 1,260 Climbing Miami Center
02:14PM 27.2122 -82.5847 187° South 385 443 22,000 1,380 Climbing Miami Center
02:15PM 27.1064 -82.6192 196° South 390 449 23,400 1,320 Climbing Miami Center
02:16PM 27.0022 -82.6678 203° Southwest 402 463 24,700 1,260 Climbing Miami Center
02:17PM 26.8944 -82.7019 196° South 412 474 26,000 1,140 Climbing Miami Center
02:18PM 26.7772 -82.7144 185° South 417 480 27,000 960 Climbing Miami Center
02:19PM 26.6575 -82.7317 187° South 429 494 28,000 1,020 Climbing Miami Center
02:20PM 26.5358 -82.7442 185° South 434 499 29,100 1,200 Climbing Miami Center
02:22PM 26.2947 -82.7739 186° South 439 505 31,600 1,320 Climbing Miami Center
02:23PM 26.1753 -82.7889 186° South 444 511 33,100 1,500 Climbing Miami Center
02:24PM 26.0594 -82.8083 189° South 439 505 34,600 1,500 Climbing Miami Center
02:25PM 25.9528 -82.8656 206° Southwest 411 473 36,200 1,440 Climbing Miami Center
02:27PM 25.7822 -83.0067 217° Southwest 416 479 39,000 1,380 Climbing Miami Center
02:28PM 25.6911 -83.0828 217° Southwest 411 473 40,500 1,500 Climbing Miami Center
02:29PM 25.6028 -83.1519 215° Southwest 403 464 42,000 1,200 Climbing Miami Center
02:30PM 25.5161 -83.2231 217° Southwest 398 458 43,000 480 Climbing Miami Center
02:31PM 25.4275 -83.2944 216° Southwest 398 458 43,000  Level Miami Center
02:33PM 25.2458 -83.4408 216° Southwest 403 464 43,000  Level Miami Center
02:35PM 25.0149 -83.6300 217° Southwest  Level FlightAware Approximate
02:35PM 25.0658 -83.5869 217° Southwest 403 464 43,000  Level Miami Center
02:38PM 24.7906 -83.8094 216° Southwest 414 476 43,400 300 Climbing Miami Center
02:39PM 24.6867 -83.8903 215° Southwest 414 476 44,400 660 Climbing Miami Center
02:40PM 24.5956 -83.9650 217° Southwest 414 476 44,800 300 Climbing Miami Center
02:41PM 24.5003 -84.0372 215° Southwest 419 482 45,000 60 Climbing Miami Center
02:42PM 24.4069 -84.1114 216° Southwest 419 482 45,000  Level Miami Center
02:43PM 24.3178 -84.1836 216° Southwest 414 476 45,000  Level Miami Center
02:44PM 24.2244 -84.2556 215° Southwest 409 471 45,000  Level Miami Center
02:45PM 24.1292 -84.3272 214° Southwest 409 471 45,000  Level Miami Center
02:46PM 24.0378 -84.4011 216° Southwest 409 471 45,000  Level Miami Center
02:47PM 23.9369 -84.4611 209° Southwest 422 486 45,000  Level Miami Center
02:48PM 23.8319 -84.5114 204° Southwest 422 486 45,000  Level Miami Center
02:49PM 23.7375 -84.5644 207° Southwest 415 478 45,000  Level Miami Center
02:50PM 23.6636 -84.6642 231° Southwest 393 452 45,000  Level Miami Center
02:52PM 23.4869 -84.7160 195° South  Level FlightAware Approximate
02:59PM 22.8612 -85.1055 223° Southwest  Level FlightAware Approximate
03:00PM 22.7843 -85.1824 223° Southwest  Level FlightAware Approximate
03:01PM 22.7075 -85.2593 223° Southwest  Level FlightAware Approximate
03:02PM 22.6306 -85.3361 223° Southwest  Level FlightAware Approximate
03:03PM 22.5538 -85.4129 223° Southwest  Level FlightAware Approximate
03:04PM 22.4770 -85.4897 223° Southwest  Level FlightAware Approximate
03:05PM 22.3939 -85.5582 216° Southwest  Level FlightAware Approximate
03:06PM 22.3104 -85.6252 226° Southwest  Level FlightAware Approximate
03:07PM 22.2372 -85.7059 226° Southwest  Level FlightAware Approximate
03:08PM 22.1635 -85.7860 218° Southwest  Level FlightAware Approximate
03:09PM 22.0813 -85.8557 218° Southwest  Level FlightAware Approximate
03:10PM 21.9990 -85.9253 218° Southwest  Level FlightAware Approximate
03:11PM 21.9295 -86.0020 220° Southwest  Level FlightAware Approximate
03:12PM 21.8494 -86.0745 220° Southwest  Level FlightAware Approximate
03:13PM 21.7694 -86.1470 220° Southwest  Level FlightAware Approximate
03:14PM 21.6893 -86.2194 220° Southwest  Level FlightAware Approximate
03:15PM 21.6092 -86.2917 220° Southwest  Level FlightAware Approximate
03:16PM 21.5366 -86.3725 227° Southwest  Level FlightAware Approximate
03:17PM 21.4628 -86.4518 220° Southwest  Level FlightAware Approximate
03:18PM 21.3827 -86.5240 220° Southwest  Level FlightAware Approximate
03:19PM 21.3024 -86.5959 219° Southwest  Level FlightAware Approximate
03:20PM 21.2213 -86.6668 219° Southwest  Level FlightAware Approximate
03:21PM 21.1362 -86.7314 212° Southwest  Level FlightAware Approximate
03:22PM 21.0675 -86.8155 231° Southwest  Level FlightAware Approximate
03:23PM 21.0167 -86.8667 270° West  Level FlightAware Approximate
03:24PM 21.0365 -86.8771 270° West  Level Estimated
03:25PM 21.0365 -86.8771 270° West  Level Estimated
03:26PM 21.0365 -86.8771 270° West  Level Estimated
03:27PM 21.0365 -86.8771 270° West  Level Estimated
03:28PM 21.0365 -86.8771 270° West  Level Estimated
03:29PM 21.0365 -86.8771 270° West  Level Estimated
03:30PM 21.0365 -86.8771 270° West  Level Estimated
03:31PM 21.0365 -86.8771 270° West  Level Estimated
03:32PM 21.0365 -86.8771 270° West  Level Estimated
03:33PM 21.0365 -86.8771 270° West  Level Estimated
03:34PM 21.0365 -86.8771 270° West  Level Estimated
03:35PM 21.0365 -86.8771 270° West  Level Estimated
03:36PM 21.0365 -86.8771 270° West  Level Estimated
03:37PM 21.0365 -86.8771 270° West  Level Estimated
03:38PM 21.0365 -86.8771 270° West  Level Estimated
03:39PM 21.0365 -86.8771 270° West  Level Estimated